Accueil
METAR-TAF:

METAR-TAF

Aéroports :

Seyresse

Dax, France

latitude: 43-41N, longitude: 001-04W, altitude: 32 m

Observation

Le bulletin a été fait il y a 35 minutes, à 22:00 UTC
Vent 4 kt de est/sud-est
Température 11°C
Humidité 76%
Pression 1011 hPa
Visibilité: 6000 m

METAR: LFBY 282200Z AUTO 11004KT 6000 // ////// 11/07 Q1011

Heure: 23:35 (22:35 UTC)

Prévision

Le bulletin a été fait il y a 14 heures et 35 minutes, à 08:00 UTC
Prévision valable du 28 à 09 UTC au 28 à 18 UTC
Vent 5 kt de sud-ouest
Visibilité: 4000 m
Nuages épars à une hauteur de 1500 ft
Nuages fragmentés à une hauteur de 3000 ft
brume
Evoluant progressivement
du 28 à 13 UTC au 28 à 15 UTC
Visibilité 10 km ou plus
pas de nuages en-dessous de 1500 mètres et pas de cumulonimbus.

TAF: LFBY 280800Z 2809/2818 22005KT 4000 BR SCT015 BKN030 BECMG 2813/2815 CAVOK

Observations et prévisions météorologiques de plus de 4000 aéroports (messages METAR et TAF).

Les stations disponibles sont représentées par des disques jaunes et rouges sur la carte.

Passer la souris dessus pour voir le nom de la station.

Cliquer dessus pour voir les observations et prévisions météorologiques.

Pour changer de carte: cliquez sur les boutons verts avec une croix noire pour zoomer, sur le bouton vert avec un tiret pour effectuer un zoom arrière, ou sur les flèches vertes pour les cartes adjacentes.


METAR-TAF: